Terminal Aerodrome Forecast
Issued by NWS

Home | Current Version | Previous Version | Text Only | Print | Product List | Glossary Off
Versions: 1 2 3 4 5 6 7 8 9 10 11 12 13 14 15 16 17 18 19 20 21 22 23 24 25 26 27 28 29

909
FTUS43 KGRB 241720
TAFRHI
TAF
KRHI 241720Z 2418/2518 16009G15KT P6SM BKN150
     FM250000 15008KT P6SM BKN120
     FM250500 16010KT P6SM BKN110 WS020/18040KT
     FM251200 16008KT P6SM BKN100=

USA.gov is the U.S. government's official web portal to all federal, state and local government web resources and services.